Data for 02/01/2014

Time Sea-Level Adjusted Pressure Absolute Pressure Temperature Relative Humidity Dew Point   
(mb) (inHg) (mb) (inHg) (C) (F) (%) (C) (F)
00:05 1013 29.91 842 24.86 -10.7 12.8 88 -12.2 10
00:10 1013 29.91 842 24.86 -10.9 12.4 89 -12.4 9.7
00:15 1013 29.91 842 24.86 -10.9 12.5 89 -12.4 9.8
00:20 1013 29.91 842 24.86 -10.8 12.6 89 -12.3 9.9
00:25 1013 29.91 842 24.86 -10.7 12.7 88 -12.3 9.9
00:30 1013 29.91 842 24.86 -10.8 12.6 88 -12.4 9.6
00:35 1013 29.91 842 24.86 -10.9 12.3 88 -12.5 9.4
00:40 1013 29.91 842 24.86 -11 12.1 88 -12.6 9.3
00:45 1013 29.91 842 24.86 -11.2 11.8 88 -12.9 8.9
00:50 1013 29.91 842 24.86 -11.3 11.6 88 -13 8.7
00:55 1013 29.91 843 24.89 -11.4 11.5 88 -13 8.6
01:00 1013 29.91 843 24.89 -11.4 11.6 89 -12.8 8.9
01:05 1013 29.91 843 24.89 -11.3 11.7 88 -12.9 8.8
01:10 1013 29.91 843 24.89 -11.3 11.7 88 -12.9 8.8
01:15 1014 29.94 843 24.89 -11.2 11.8 88 -12.8 8.9
01:20 1014 29.94 843 24.89 -11.2 11.9 89 -12.7 9.1
01:25 1014 29.94 843 24.89 -11.1 12 88 -12.7 9.1
01:30 1014 29.94 843 24.89 -11.1 12 88 -12.7 9.1
01:35 1014 29.94 843 24.89 -11.1 12 87 -12.9 8.9
01:40 1014 29.94 843 24.89 -11.2 11.8 87 -13 8.6
01:45 1014 29.94 843 24.89 -11.4 11.6 87 -13.2 8.3
01:50 1014 29.94 843 24.89 -11.5 11.4 86 -13.3 8
01:55 1014 29.94 843 24.89 -11.6 11.1 87 -13.4 7.9
02:00 1014 29.94 843 24.89 -11.7 11 87 -13.4 7.9
02:05 1014 29.94 843 24.89 -11.7 10.9 87 -13.5 7.7
02:10 1014 29.94 843 24.89 -11.8 10.8 87 -13.5 7.8
02:15 1014 29.94 843 24.89 -11.8 10.7 87 -13.5 7.7
02:20 1014 29.94 843 24.89 -11.9 10.7 87 -13.5 7.6
02:25 1014 29.94 843 24.89 -11.9 10.5 87 -13.6 7.5
02:30 1014 29.94 843 24.89 -12 10.4 88 -13.7 7.4
02:35 1014 29.94 843 24.89 -12 10.3 87 -13.8 7.2
02:40 1014 29.94 843 24.89 -12.1 10.3 87 -13.8 7.1
02:45 1014 29.94 844 24.92 -12.1 10.2 87 -13.8 7.1
02:50 1014 29.94 844 24.92 -12.2 10.1 87 -14 6.9
02:55 1014 29.94 844 24.92 -12.2 10 87 -14 6.9
03:00 1015 29.97 844 24.92 -12.2 10.1 86 -14 6.7
03:05 1015 29.97 844 24.92 -12.3 9.9 86 -14.2 6.4
03:10 1015 29.97 844 24.92 -12.3 9.8 86 -14.2 6.4
03:15 1015 29.97 844 24.92 -12.4 9.7 85 -14.4 6
03:20 1015 29.97 844 24.92 -12.4 9.7 84 -14.5 5.8
03:25 1015 29.97 844 24.92 -12.5 9.5 85 -14.5 5.9
03:30 1015 29.97 844 24.92 -12.5 9.5 84 -14.6 5.6
03:35 1015 29.97 844 24.92 -12.6 9.4 84 -14.8 5.4
03:40 1015 29.97 844 24.92 -12.6 9.3 83 -14.9 5.2
03:45 1015 29.97 844 24.92 -12.6 9.3 83 -14.9 5.1
03:50 1015 29.97 844 24.92 -12.6 9.2 83 -15 5
03:55 1015 29.97 844 24.92 -12.7 9.2 82 -15.1 4.8
04:00 1015 29.97 845 24.95 -12.7 9.1 82 -15.2 4.7
04:05 1015 29.97 845 24.95 -12.8 9.1 82 -15.2 4.7
04:10 1015 29.97 845 24.95 -12.8 9 83 -15.1 4.9
04:15 1015 29.97 845 24.95 -12.8 9 84 -15 5
04:20 1015 29.97 845 24.95 -12.9 8.8 82 -15.3 4.5
04:25 1015 29.97 845 24.95 -12.9 8.8 82 -15.3 4.5
04:30 1015 29.97 845 24.95 -12.9 8.8 83 -15.2 4.6
04:35 1015 29.97 845 24.95 -13 8.7 82 -15.4 4.3
04:40 1015 29.97 845 24.95 -12.9 8.7 81 -15.5 4
04:45 1015 29.97 845 24.95 -12.9 8.7 81 -15.6 4
04:50 1016 30 845 24.95 -12.9 8.7 81 -15.6 3.9
04:55 1016 30 845 24.95 -13 8.7 81 -15.6 4
05:00 1016 30 845 24.95 -13 8.7 80 -15.7 3.7
05:05 1016 30 845 24.95 -12.9 8.7 80 -15.7 3.8
05:10 1016 30 845 24.95 -13 8.7 81 -15.7 3.8
05:15 1016 30 845 24.95 -13 8.6 81 -15.7 3.8
05:20 1016 30 845 24.95 -13 8.6 80 -15.7 3.7
05:25 1016 30 845 24.95 -12.9 8.7 79 -15.8 3.6
05:30 1016 30 845 24.95 -13 8.7 80 -15.7 3.7
05:35 1016 30 845 24.95 -13 8.7 80 -15.7 3.8
05:40 1016 30 845 24.95 -13 8.6 81 -15.7 3.8
05:45 1016 30 845 24.95 -13 8.5 81 -15.7 3.8
05:50 1016 30 845 24.95 -13 8.5 80 -15.7 3.7
05:55 1016 30 845 24.95 -13.1 8.5 80 -15.8 3.5
06:00 1016 30 845 24.95 -13.1 8.5 80 -15.9 3.4
06:05 1016 30 845 24.95 -13.1 8.5 79 -16 3.2
06:10 1016 30 845 24.95 -13.1 8.5 79 -15.9 3.3
06:15 1016 30 845 24.95 -13 8.7 79 -15.8 3.5
06:20 1016 30 845 24.95 -12.9 8.7 80 -15.7 3.7
06:25 1016 30 845 24.95 -13 8.5 81 -15.7 3.7
06:30 1016 30 845 24.95 -13.1 8.5 80 -15.8 3.5
06:35 1016 30 845 24.95 -13.1 8.5 81 -15.7 3.8
06:40 1016 30 846 24.98 -13.2 8.3 82 -15.7 3.8
06:45 1016 30 845 24.95 -13.2 8.2 81 -15.8 3.6
06:50 1016 30 845 24.95 -13.2 8.3 81 -15.8 3.6
06:55 1016 30 845 24.95 -13.2 8.3 81 -15.8 3.5
07:00 1016 30 845 24.95 -13.2 8.3 81 -15.7 3.7
07:05 1016 30 845 24.95 -13.2 8.3 82 -15.7 3.7
07:10 1016 30 845 24.95 -13.2 8.3 81 -15.8 3.6
07:15 1016 30 846 24.98 -13 8.6 81 -15.7 3.8
07:20 1016 30 846 24.98 -13 8.7 80 -15.7 3.8
07:25 1016 30 846 24.98 -13.1 8.5 82 -15.5 4
07:30 1016 30 846 24.98 -13.1 8.4 82 -15.6 3.9
07:35 1017 30.03 846 24.98 -13.1 8.5 82 -15.5 4
07:40 1016 30 846 24.98 -13.1 8.5 82 -15.5 4.1
07:45 1017 30.03 846 24.98 -13.1 8.3 83 -15.5 4.1
07:50 1017 30.03 846 24.98 -13.3 8.1 84 -15.5 4.1
07:55 1017 30.03 846 24.98 -13.3 8 83 -15.6 3.9
08:00 1017 30.03 846 24.98 -13.4 7.9 84 -15.6 3.9
08:05 1017 30.03 846 24.98 -13.4 7.8 84 -15.6 4
08:10 1017 30.03 846 24.98 -13.4 7.8 84 -15.6 4
08:15 1017 30.03 846 24.98 -13.5 7.7 84 -15.6 3.9
08:20 1017 30.03 846 24.98 -13.5 7.8 84 -15.6 3.9
08:25 1017 30.03 846 24.98 -13.3 8 85 -15.4 4.3
08:30 1017 30.03 846 24.98 -13.2 8.3 84 -15.4 4.3
08:35 1017 30.03 846 24.98 -13.1 8.4 84 -15.3 4.4
08:40 1017 30.03 846 24.98 -13.1 8.4 84 -15.3 4.5
08:45 1017 30.03 846 24.98 -13.1 8.4 84 -15.2 4.6
08:50 1017 30.03 846 24.98 -13.1 8.4 84 -15.3 4.5
08:55 1017 30.03 846 24.98 -13.2 8.3 85 -15.2 4.6
09:00 1017 30.03 846 24.98 -13.1 8.5 85 -15.1 4.7
09:05 1017 30.03 846 24.98 -13 8.6 84 -15.1 4.8
09:10 1017 30.03 846 24.98 -13 8.7 84 -15.1 4.8
09:15 1017 30.03 846 24.98 -13 8.6 84 -15.2 4.7
09:20 1017 30.03 846 24.98 -13.1 8.5 84 -15.2 4.7
09:25 1017 30.03 846 24.98 -13.1 8.5 85 -15.1 4.8
09:30 1017 30.03 846 24.98 -12.9 8.8 84 -15.1 4.9
09:35 1017 30.03 846 24.98 -12.8 8.9 84 -15 5
09:40 1017 30.03 847 25.01 -12.9 8.8 83 -15.2 4.7
09:45 1017 30.03 847 25.01 -13 8.7 83 -15.2 4.6
09:50 1017 30.03 847 25.01 -13 8.7 84 -15.1 4.8
09:55 1018 30.06 847 25.01 -12.7 9.1 81 -15.3 4.5
10:00 1018 30.06 847 25.01 -12.7 9.2 83 -15 4.9
10:05 1018 30.06 847 25.01 -12.4 9.8 81 -15 5.1
10:10 1018 30.06 847 25.01 -12.2 10.1 80 -14.9 5.1
10:15 1018 30.06 847 25.01 -12.1 10.2 80 -14.9 5.2
10:20 1018 30.06 847 25.01 -12 10.5 80 -14.8 5.3
10:25 1018 30.06 847 25.01 -11.9 10.6 78 -15 5.1
10:30 1018 30.06 847 25.01 -12 10.4 79 -15 5
10:35 1018 30.06 847 25.01 -11.9 10.6 79 -14.8 5.4
10:40 1018 30.06 847 25.01 -11.6 11.2 77 -14.8 5.4
10:45 1018 30.06 847 25.01 -11.6 11.1 77 -14.9 5.2
10:50 1018 30.06 847 25.01 -11.6 11.2 77 -14.8 5.3
10:55 1018 30.06 847 25.01 -11 12.1 75 -14.7 5.6
11:00 1018 30.06 847 25.01 -11.1 12.1 75 -14.7 5.6
11:05 1018 30.06 847 25.01 -11.3 11.6 75 -15 5.1
11:10 1018 30.06 847 25.01 -11.2 11.9 74 -15 5
11:15 1018 30.06 847 25.01 -10.9 12.5 73 -14.9 5.2
11:20 1018 30.06 847 25.01 -11.1 12 72 -15.2 4.6
11:25 1018 30.06 847 25.01 -10.9 12.4 71 -15.2 4.6
11:30 1018 30.06 847 25.01 -10.6 13 70 -15.1 4.8
11:35 1018 30.06 847 25.01 -10.4 13.4 70 -14.9 5.3
11:40 1018 30.06 847 25.01 -10.8 12.6 71 -15.1 4.9
11:45 1018 30.06 847 25.01 -11.1 12.1 71 -15.4 4.3
11:50 1018 30.06 847 25.01 -11.3 11.7 70 -15.7 3.8
11:55 1018 30.06 847 25.01 -10.6 12.9 69 -15.3 4.5
12:00 1018 30.06 847 25.01 -10.6 12.9 68 -15.3 4.4
12:05 1018 30.06 847 25.01 -10.7 12.8 69 -15.2 4.6
12:10 1018 30.06 847 25.01 -10.8 12.6 70 -15.3 4.4
12:15 1018 30.06 847 25.01 -10.9 12.4 68 -15.6 3.9
12:20 1018 30.06 847 25.01 -10.7 12.7 67 -15.7 3.8
12:25 1018 30.06 847 25.01 -10.5 13 68 -15.4 4.3
12:30 1018 30.06 847 25.01 -10 14 65 -15.4 4.3
12:35 1018 30.06 847 25.01 -9.8 14.4 64 -15.4 4.3
12:40 1018 30.06 847 25.01 -10.1 13.8 66 -15.2 4.6
12:45 1018 30.06 847 25.01 -10.2 13.6 66 -15.5 4.1
12:50 1018 30.06 847 25.01 -9.6 14.8 63 -15.4 4.4
12:55 1018 30.06 847 25.01 -9.6 14.7 63 -15.3 4.4
13:00 1018 30.06 847 25.01 -10.2 13.6 63 -16 3.2
13:05 1018 30.06 847 25.01 -9.5 15 61 -15.6 3.9
13:10 1018 30.06 847 25.01 -9.3 15.2 62 -15.3 4.5
13:15 1018 30.06 847 25.01 -9.5 14.9 64 -15.2 4.6
13:20 1018 30.06 847 25.01 -9.3 15.2 64 -14.9 5.2
13:25 1018 30.06 847 25.01 -9.5 14.9 64 -15.2 4.7
13:30 1018 30.06 847 25.01 -9.7 14.6 64 -15.3 4.5
13:35 1018 30.06 847 25.01 -9.3 15.3 63 -15.1 4.9
13:40 1018 30.06 847 25.01 -9.4 15.1 62 -15.3 4.4
13:45 1017 30.03 847 25.01 -9.2 15.4 62 -15.1 4.7
13:50 1017 30.03 847 25.01 -9 15.9 62 -15 5
13:55 1017 30.03 847 25.01 -9.1 15.6 63 -14.9 5.1
14:00 1017 30.03 847 25.01 -9.2 15.5 60 -15.6 3.9
14:05 1017 30.03 847 25.01 -9.5 14.9 62 -15.4 4.2
14:10 1017 30.03 846 24.98 -9.6 14.8 63 -15.3 4.4
14:15 1017 30.03 846 24.98 -9.4 15 62 -15.4 4.2
14:20 1017 30.03 846 24.98 -9.2 15.4 61 -15.4 4.3
14:25 1017 30.03 846 24.98 -9.4 15 61 -15.6 3.9
14:30 1017 30.03 846 24.98 -9.2 15.5 60 -15.5 4.1
14:35 1017 30.03 846 24.98 -9.2 15.5 57 -16.2 2.9
14:40 1017 30.03 846 24.98 -8.9 16 57 -15.9 3.5
14:45 1017 30.03 846 24.98 -8.9 16 58 -15.6 3.8
14:50 1017 30.03 846 24.98 -9.7 14.6 61 -15.8 3.5
14:55 1017 30.03 846 24.98 -10 13.9 60 -16.3 2.6
15:00 1017 30.03 846 24.98 -10.1 13.8 60 -16.6 2.2
15:05 1017 30.03 846 24.98 -9.5 14.8 57 -16.6 2
15:10 1017 30.03 846 24.98 -9.1 15.6 56 -16.4 2.5
15:15 1017 30.03 846 24.98 -9.4 15.1 58 -16.3 2.7
15:20 1017 30.03 846 24.98 -10.2 13.7 61 -16.3 2.6
15:25 1017 30.03 846 24.98 -10 13.9 61 -16.3 2.7
15:30 1017 30.03 846 24.98 -10.1 13.8 61 -16.2 2.9
15:35 1017 30.03 846 24.98 -9.7 14.6 59 -16.3 2.6
15:40 1017 30.03 846 24.98 -9.3 15.3 58 -16.1 3
15:45 1017 30.03 846 24.98 -8.9 16.1 57 -15.9 3.4
15:50 1017 30.03 846 24.98 -8.9 15.9 56 -16.1 3
15:55 1016 30 846 24.98 -8.6 16.5 55 -16 3.1
16:00 1016 30 846 24.98 -8.1 17.3 54 -16 3.2
16:05 1016 30 846 24.98 -8.5 16.8 55 -16.1 3.1
16:10 1016 30 846 24.98 -7.7 18.2 52 -15.8 3.5
16:15 1016 30 846 24.98 -6.9 19.6 50 -15.6 4
16:20 1016 30 846 24.98 -7.3 18.9 52 -15.6 4
16:25 1016 30 846 24.98 -8 17.5 54 -15.7 3.7
16:30 1017 30.03 846 24.98 -7.7 18.1 54 -15.6 4
16:35 1016 30 846 24.98 -7.6 18.4 52 -15.8 3.6
16:40 1016 30 846 24.98 -6.6 20.1 48 -15.8 3.5
16:45 1016 30 846 24.98 -6.4 20.5 49 -15.5 4
16:50 1016 30 846 24.98 -6.9 19.7 51 -15.3 4.4
16:55 1016 30 846 24.98 -7.3 18.9 53 -15.3 4.5
17:00 1016 30 846 24.98 -7.7 18.2 54 -15.4 4.2
17:05 1016 30 846 24.98 -7.9 17.9 53 -15.9 3.4
17:10 1016 30 846 24.98 -7.4 18.6 51 -15.8 3.5
17:15 1016 30 846 24.98 -7.5 18.4 52 -15.9 3.5
17:20 1016 30 846 24.98 -8.3 17 54 -16 3.2
17:25 1016 30 846 24.98 -8.8 16.2 54 -16.5 2.3
17:30 1016 30 846 24.98 -9.2 15.4 56 -16.4 2.5
17:35 1016 30 846 24.98 -9.2 15.5 56 -16.4 2.6
17:40 1016 30 845 24.95 -9 15.8 56 -16.2 2.9
17:45 1016 30 845 24.95 -9.3 15.3 57 -16.3 2.6
17:50 1016 30 845 24.95 -9.2 15.5 57 -16.3 2.7
17:55 1016 30 845 24.95 -9 15.8 57 -16.1 3
18:00 1016 30 845 24.95 -8.9 16 56 -16 3.1
18:05 1016 30 845 24.95 -9 15.9 58 -15.9 3.4
18:10 1016 30 845 24.95 -9.5 15 61 -15.8 3.6
18:15 1016 30 845 24.95 -10.2 13.7 63 -15.9 3.4
18:20 1016 30 845 24.95 -10.5 13.1 65 -15.9 3.3
18:25 1016 30 845 24.95 -10.8 12.6 66 -16 3.2
18:30 1016 30 845 24.95 -11.1 12.1 67 -16.1 3.1
18:35 1016 30 845 24.95 -11.3 11.6 67 -16.3 2.6
18:40 1016 30 845 24.95 -11.5 11.4 69 -16 3.1
18:45 1016 30 845 24.95 -11.6 11 70 -16.1 2.9
18:50 1016 30 845 24.95 -11.9 10.7 70 -16.2 2.8
18:55 1016 30 845 24.95 -12.1 10.3 71 -16.3 2.6
19:00 1016 30 845 24.95 -12.2 10.1 69 -16.8 1.8
19:05 1016 30 845 24.95 -12 10.4 69 -16.5 2.2
19:10 1016 30 845 24.95 -12 10.4 71 -16.3 2.7
19:15 1016 30 845 24.95 -12.3 9.9 70 -16.6 2.1
19:20 1016 30 845 24.95 -11.9 10.6 71 -16.2 2.9
19:25 1016 30 845 24.95 -12.9 8.8 72 -17 1.5
19:30 1016 30 845 24.95 -13.8 7.2 73 -17.7 0.2
19:35 1016 30 845 24.95 -13.8 7.1 71 -18.1 -0.6
19:40 1016 30 845 24.95 -13.8 7.2 72 -17.8 -0.1
19:45 1016 30 845 24.95 -13.9 7 73 -17.8 -0
19:50 1016 30 845 24.95 -14.1 6.7 73 -17.9 -0.1
19:55 1016 30 845 24.95 -14.1 6.7 74 -17.8 0
20:00 1016 30 845 24.95 -14 6.8 75 -17.6 0.3
20:05 1016 30 845 24.95 -13.7 7.4 73 -17.6 0.4
20:10 1016 30 845 24.95 -13.1 8.4 71 -17.4 0.7
20:15 1016 30 845 24.95 -13 8.7 70 -17.3 0.8
20:20 1016 30 845 24.95 -13.1 8.5 70 -17.4 0.8
20:25 1016 30 845 24.95 -13.2 8.2 73 -17.1 1.1
20:30 1016 30 845 24.95 -13.5 7.7 73 -17.3 0.8
20:35 1016 30 845 24.95 -13.7 7.4 74 -17.4 0.8
20:40 1016 30 845 24.95 -13.9 7 74 -17.5 0.5
20:45 1016 30 845 24.95 -14 6.9 74 -17.6 0.4
20:50 1016 30 845 24.95 -13.6 7.6 72 -17.6 0.3
20:55 1016 30 845 24.95 -13.5 7.7 71 -17.7 0.2
21:00 1016 30 845 24.95 -13.7 7.3 73 -17.7 0.2
21:05 1016 30 845 24.95 -14 6.7 74 -17.7 0.2
21:10 1016 30 845 24.95 -14.2 6.5 74 -17.8 -0
21:15 1016 30 845 24.95 -14.4 6.1 75 -17.9 -0.2
21:20 1016 30 845 24.95 -14.4 6.1 75 -17.9 -0.1
21:25 1016 30 845 24.95 -14.1 6.7 74 -17.7 0.1
21:30 1016 30 845 24.95 -13.8 7.2 73 -17.6 0.4
21:35 1016 30 845 24.95 -13.7 7.4 73 -17.5 0.5
21:40 1016 30 845 24.95 -13.8 7.2 73 -17.6 0.3
21:45 1016 30 845 24.95 -14.1 6.7 74 -17.7 0.2
21:50 1016 30 845 24.95 -14.3 6.3 76 -17.6 0.3
21:55 1016 30 845 24.95 -14.4 6.2 75 -17.9 -0.2
22:00 1016 30 845 24.95 -14.5 6 75 -18 -0.3
22:05 1016 30 845 24.95 -14.5 5.9 75 -18 -0.4
22:10 1016 30 845 24.95 -14.3 6.4 74 -18 -0.3
22:15 1016 30 845 24.95 -14.2 6.4 74 -17.8 -0.1
22:20 1016 30 845 24.95 -14.2 6.5 74 -17.8 -0
22:25 1016 30 845 24.95 -14.2 6.4 73 -18.1 -0.6
22:30 1016 30 845 24.95 -14.6 5.8 73 -18.4 -1.1
22:35 1016 30 845 24.95 -15.1 4.9 77 -18.3 -0.9
22:40 1016 30 845 24.95 -14.9 5.2 75 -18.4 -1.1
22:45 1016 30 845 24.95 -15 5.1 74 -18.6 -1.4
22:50 1016 30 845 24.95 -16.1 3 78 -19.1 -2.3
22:55 1016 30 845 24.95 -16.2 2.9 79 -19 -2.2
23:00 1016 30 845 24.95 -16.2 2.8 80 -19 -2.2
23:05 1016 30 845 24.95 -16.2 2.9 80 -18.9 -2
23:10 1016 30 845 24.95 -15.9 3.5 80 -18.6 -1.4
23:15 1016 30 845 24.95 -15.4 4.3 78 -18.4 -1.1
23:20 1016 30 845 24.95 -15.2 4.7 78 -18.2 -0.8
23:25 1016 30 845 24.95 -14.8 5.3 77 -18 -0.5
23:30 1016 30 845 24.95 -14.6 5.7 76 -17.9 -0.3
23:35 1016 30 845 24.95 -14.6 5.7 76 -17.9 -0.2
23:40 1016 30 845 24.95 -14.6 5.8 76 -17.9 -0.2
23:45 1016 30 845 24.95 -14.6 5.6 77 -17.8 -0.1
23:50 1016 30 845 24.95 -14.8 5.5 77 -18 -0.3
23:55 1016 30 845 24.95 -14.8 5.3 78 -17.8 -0.1
24:00 1016 30 845 24.95 -14.8 5.4 78 -17.9 -0.2